Terminal Aerodrome Forecast
Issued by NWS

Home | Current Version | Previous Version | Text Only | Print | Product List | Glossary On
Versions: 1 2 3 4 5 6 7 8 9 10 11 12 13
000
FTUS45 KABQ 242342
TAFLVS
TAF
KLVS 242342Z 2500/2524 31015KT P6SM VCTS BKN100CB
      TEMPO 2500/2502 VRB20G30KT -SHRA BKN080
     FM250200 VRB10G20KT P6SM VCSH BKN090
     FM250400 03007KT P6SM BKN100
     FM251800 17012KT P6SM VCSH SCT100 BKN140
     FM252100 17015KT P6SM VCTS BKN070CB OVC120=

USA.gov is the U.S. government's official web portal to all federal, state and local government web resources and services.